createdAt,value
2023-04-18T09:50:40.356Z,19.29
2023-04-18T09:53:10.897Z,19.22
2023-04-18T09:55:41.691Z,19.39
2023-04-18T09:58:11.550Z,19.53
2023-04-18T10:00:40.675Z,19.76
2023-04-18T10:03:11.084Z,19.92
2023-04-18T10:05:41.547Z,20.08
2023-04-18T10:08:10.982Z,20.15
2023-04-18T10:10:39.888Z,20.15
2023-04-18T10:13:11.291Z,20.06
2023-04-18T10:15:41.757Z,19.91
2023-04-18T10:18:18.660Z,19.91
2023-04-18T10:20:47.265Z,19.86
2023-04-18T10:23:40.451Z,19.69
2023-04-18T10:26:10.748Z,19.58
2023-04-18T10:29:00.935Z,19.71
2023-04-18T10:31:30.166Z,19.82
2023-04-18T10:34:05.428Z,19.74
2023-04-18T10:36:34.757Z,19.66
2023-04-18T10:39:23.529Z,19.76
2023-04-18T10:41:51.921Z,19.91
2023-04-18T10:44:24.617Z,20.04
2023-04-18T10:46:58.453Z,19.98
2023-04-18T10:49:34.311Z,19.90
2023-04-18T10:52:06.165Z,19.65
2023-04-18T10:54:42.060Z,19.62
2023-04-18T10:57:13.893Z,19.86
2023-04-18T10:59:44.868Z,20.34
2023-04-18T11:02:30.899Z,20.74
2023-04-18T11:05:02.684Z,20.94
2023-04-18T11:07:46.404Z,20.98
2023-04-18T11:10:20.492Z,20.87
2023-04-18T11:12:49.140Z,20.85
2023-04-18T11:15:22.352Z,20.92
2023-04-18T11:18:10.420Z,21.14
2023-04-18T11:20:48.954Z,21.33
2023-04-18T11:23:25.684Z,21.11
2023-04-18T11:25:56.689Z,20.82
2023-04-18T11:28:32.559Z,20.76
2023-04-18T11:31:03.030Z,20.95
2023-04-18T11:33:31.385Z,21.28
2023-04-18T11:35:59.922Z,21.65
2023-04-18T11:38:34.655Z,21.98
2023-04-18T11:41:03.141Z,22.09
2023-04-18T11:43:31.563Z,22.10
2023-04-18T11:46:00.362Z,21.71
2023-04-18T11:48:43.018Z,21.16
2023-04-18T11:51:55.363Z,21.12
2023-04-18T11:54:41.229Z,21.42
2023-04-18T11:57:45.920Z,21.75
2023-04-18T12:00:15.119Z,22.03
2023-04-18T12:02:48.975Z,22.28
2023-04-18T12:05:29.417Z,22.39
2023-04-18T12:08:19.046Z,22.30
2023-04-18T12:10:57.028Z,22.12
2023-04-18T12:13:27.511Z,22.04
2023-04-18T12:15:56.252Z,22.07
2023-04-18T12:18:24.890Z,22.12
2023-04-18T12:20:56.971Z,22.11
2023-04-18T12:23:46.151Z,21.91
2023-04-18T12:26:28.724Z,21.57
2023-04-18T12:28:58.429Z,20.99
2023-04-18T12:31:28.833Z,20.55
2023-04-18T12:34:00.305Z,20.26
2023-04-18T12:36:28.841Z,20.21
2023-04-18T12:38:57.076Z,20.26
2023-04-18T12:41:25.631Z,20.37
2023-04-18T12:43:53.908Z,20.52
2023-04-18T12:46:22.322Z,20.62
2023-04-18T12:48:50.752Z,20.77
2023-04-18T12:51:18.999Z,20.94
2023-04-18T12:53:56.510Z,21.29
2023-04-18T12:56:24.931Z,21.69
2023-04-18T12:58:53.164Z,21.89
2023-04-18T13:01:21.504Z,21.84
2023-04-18T13:03:59.890Z,21.71
2023-04-18T13:06:37.842Z,21.58
2023-04-18T13:09:06.165Z,21.34
2023-04-18T13:11:34.538Z,21.06
2023-04-18T13:14:02.826Z,20.86
2023-04-18T13:16:31.434Z,20.72
2023-04-18T13:18:59.897Z,20.71
2023-04-18T13:21:28.319Z,20.87
2023-04-18T13:23:56.646Z,21.05
2023-04-18T13:26:25.209Z,21.22
2023-04-18T13:28:54.764Z,21.40
2023-04-18T13:34:17.738Z,21.40
2023-04-18T13:36:45.931Z,21.26
2023-04-18T13:39:15.377Z,21.28
2023-04-18T13:41:43.794Z,21.42
2023-04-18T13:44:12.142Z,21.54
2023-04-18T13:46:40.825Z,21.72
2023-04-18T13:49:09.022Z,21.95
2023-04-18T13:51:37.386Z,22.18
2023-04-18T13:54:05.728Z,22.40
2023-04-18T13:56:34.313Z,22.57
2023-04-18T13:59:02.635Z,22.64
2023-04-18T14:01:31.157Z,22.61
2023-04-18T14:03:59.498Z,22.64
2023-04-18T14:06:27.981Z,22.86
2023-04-18T14:08:56.162Z,22.97
2023-04-18T14:11:24.345Z,22.88
2023-04-18T14:13:52.713Z,22.66
2023-04-18T14:16:28.364Z,22.46
2023-04-18T14:18:57.296Z,22.37
2023-04-18T14:21:26.604Z,22.30
2023-04-18T14:23:54.855Z,22.25
2023-04-18T14:26:23.051Z,22.20
2023-04-18T14:28:51.336Z,22.11
2023-04-18T14:31:19.726Z,22.03
2023-04-18T14:33:48.142Z,21.97
2023-04-18T14:36:16.953Z,21.92
2023-04-18T14:38:48.678Z,21.96
2023-04-18T14:41:16.819Z,21.98
2023-04-18T14:43:45.093Z,21.87
2023-04-18T14:46:16.804Z,21.71
2023-04-18T14:48:48.538Z,21.59
2023-04-18T14:51:17.134Z,21.59
2023-04-18T14:53:45.804Z,21.58
2023-04-18T14:56:14.875Z,21.63
2023-04-18T14:58:52.771Z,21.62
2023-04-18T15:01:21.178Z,21.56
2023-04-18T15:03:51.493Z,21.43
2023-04-18T15:06:19.965Z,21.07
2023-04-18T15:08:48.171Z,20.63
2023-04-18T15:11:16.421Z,20.17
2023-04-18T15:13:44.829Z,19.79
2023-04-18T15:16:13.325Z,19.36
2023-04-18T15:18:41.623Z,18.96
2023-04-18T15:21:09.766Z,18.68
2023-04-18T15:23:38.096Z,18.40
2023-04-18T15:26:06.550Z,18.20
2023-04-18T15:28:34.952Z,17.92
2023-04-18T15:31:03.285Z,17.71
2023-04-18T15:33:31.616Z,17.54
2023-04-18T15:36:00.076Z,17.42
2023-04-18T15:38:28.397Z,17.34
2023-04-18T15:40:56.784Z,17.26
2023-04-18T15:43:31.263Z,17.18
2023-04-18T15:46:01.629Z,17.08
2023-04-18T15:48:34.129Z,17.00
2023-04-18T15:51:02.421Z,16.94
2023-04-18T15:53:30.608Z,16.87
2023-04-18T15:56:01.881Z,16.77
2023-04-18T15:58:30.473Z,16.69
2023-04-18T16:00:58.871Z,16.62
2023-04-18T16:03:27.479Z,16.52
2023-04-18T16:05:55.826Z,16.41
2023-04-18T16:08:24.030Z,16.32
2023-04-18T16:10:53.429Z,16.25
2023-04-18T16:13:21.625Z,16.19
2023-04-18T16:15:50.034Z,16.14
2023-04-18T16:18:18.329Z,16.04
2023-04-18T16:20:47.373Z,15.91
2023-04-18T16:23:15.783Z,15.79
2023-04-18T16:25:43.989Z,15.70
2023-04-18T16:28:12.211Z,15.62
2023-04-18T16:30:43.852Z,15.53
2023-04-18T16:33:12.128Z,15.44
2023-04-18T16:35:46.967Z,15.38
2023-04-18T16:38:25.248Z,15.32
2023-04-18T16:40:57.845Z,15.24
2023-04-18T16:43:38.314Z,15.17
2023-04-18T16:46:49.991Z,15.10
2023-04-18T16:49:27.774Z,15.00
2023-04-18T17:39:02.783Z,13.87
2023-04-18T17:52:49.154Z,13.70
2023-04-18T18:04:45.023Z,13.60
2023-04-18T18:07:37.013Z,13.60
2023-04-18T18:10:12.339Z,13.58
2023-04-18T18:12:42.855Z,13.55
2023-04-18T18:15:29.075Z,13.53
2023-04-18T18:18:29.109Z,13.47
2023-04-18T18:21:18.806Z,13.44
2023-04-18T18:24:00.143Z,13.41
2023-04-18T18:30:03.141Z,13.36
2023-04-18T18:32:52.093Z,13.32
2023-04-18T18:35:22.218Z,13.28
2023-04-18T18:42:25.176Z,13.22
2023-04-18T18:54:14.473Z,13.09
2023-04-18T19:01:47.112Z,13.04
2023-04-18T19:04:19.232Z,13.04
2023-04-18T19:06:56.778Z,13.02
2023-04-18T19:16:40.361Z,12.95
2023-04-18T19:19:56.392Z,12.93
2023-04-18T19:22:35.254Z,12.91
2023-04-18T19:37:21.699Z,12.75
2023-04-18T19:43:42.767Z,12.63
2023-04-18T19:46:11.593Z,12.55
2023-04-18T19:48:40.131Z,12.49
2023-04-18T19:51:08.454Z,12.43
2023-04-18T19:53:36.889Z,12.37
2023-04-18T19:56:05.872Z,12.31
2023-04-18T19:58:40.408Z,12.26
2023-04-18T20:01:18.610Z,12.20
2023-04-18T20:03:48.386Z,12.16
2023-04-18T20:06:18.199Z,12.11
2023-04-18T20:08:46.658Z,12.07
2023-04-18T20:11:15.291Z,12.02
2023-04-18T20:13:47.193Z,11.98
2023-04-18T20:16:17.018Z,11.93
2023-04-18T20:18:55.110Z,11.90
2023-04-18T20:21:23.763Z,11.84
2023-04-18T20:23:52.349Z,11.81
2023-04-18T20:26:21.058Z,11.76
2023-04-18T20:28:57.008Z,11.72
2023-04-18T20:31:25.332Z,11.67
2023-04-18T20:33:56.041Z,11.63
2023-04-18T20:36:25.010Z,11.59
2023-04-18T20:38:53.585Z,11.55
2023-04-18T20:41:24.405Z,11.51
2023-04-18T20:43:55.113Z,11.48
2023-04-18T20:46:23.819Z,11.45
2023-04-18T20:48:52.291Z,11.42
2023-04-18T20:51:21.556Z,11.39
2023-04-18T20:53:50.013Z,11.35
2023-04-18T20:56:18.549Z,11.32
2023-04-18T20:58:47.709Z,11.28
2023-04-18T21:01:16.264Z,11.24
2023-04-18T21:03:44.916Z,11.21
2023-04-18T21:06:14.600Z,11.16
2023-04-18T21:08:43.027Z,11.13
2023-04-18T21:11:11.451Z,11.11
2023-04-18T21:13:39.896Z,11.06
2023-04-18T21:16:10.371Z,11.05
2023-04-18T21:18:38.973Z,11.03
2023-04-18T21:21:08.070Z,10.98
2023-04-18T21:23:42.188Z,10.96
2023-04-18T21:26:12.680Z,10.93
2023-04-18T21:29:01.728Z,10.91
2023-04-18T21:31:33.111Z,10.87
2023-04-18T21:34:04.395Z,10.83
2023-04-18T21:36:33.131Z,10.80
2023-04-18T21:39:01.730Z,10.77
2023-04-18T21:41:30.246Z,10.75
2023-04-18T21:43:58.716Z,10.71
2023-04-18T21:46:27.318Z,10.69
2023-04-18T21:48:55.961Z,10.66
2023-04-18T21:51:24.543Z,10.65
2023-04-18T21:53:53.914Z,10.63
2023-04-18T21:56:22.336Z,10.61
2023-04-18T21:58:50.751Z,10.60
2023-04-18T22:01:20.026Z,10.58
2023-04-18T22:03:48.769Z,10.56
2023-04-18T22:06:17.405Z,10.54
2023-04-18T22:08:45.778Z,10.52
2023-04-18T22:11:14.349Z,10.51
2023-04-18T22:13:45.183Z,10.48
2023-04-18T22:16:13.752Z,10.46
2023-04-18T22:18:43.130Z,10.44
2023-04-18T22:21:11.992Z,10.42
2023-04-18T22:23:40.393Z,10.40
2023-04-18T22:26:08.916Z,10.38
2023-04-18T22:28:37.455Z,10.36
2023-04-18T22:31:05.983Z,10.34
2023-04-18T22:33:35.266Z,10.32
2023-04-18T22:36:03.856Z,10.31
2023-04-18T22:38:32.525Z,10.28
2023-04-18T22:41:01.002Z,10.27
2023-04-18T22:43:30.448Z,10.25
2023-04-18T22:45:58.940Z,10.23
2023-04-18T22:48:27.369Z,10.22
2023-04-18T22:50:56.066Z,10.20
2023-04-18T22:53:25.171Z,10.19
2023-04-18T22:55:53.797Z,10.17
2023-04-18T22:58:22.305Z,10.15
2023-04-18T23:00:51.919Z,10.14
2023-04-18T23:03:20.682Z,10.11
2023-04-18T23:05:49.361Z,10.10
2023-04-18T23:08:22.776Z,10.08
2023-04-18T23:10:52.495Z,10.06
2023-04-18T23:13:24.717Z,10.05
2023-04-18T23:15:53.312Z,10.03
2023-04-18T23:18:21.639Z,10.01
2023-04-18T23:20:50.165Z,10.00
2023-04-18T23:23:18.566Z,9.98
2023-04-18T23:25:47.121Z,9.96
2023-04-18T23:28:17.279Z,9.95
2023-04-18T23:30:48.189Z,9.94
2023-04-18T23:33:17.234Z,9.92
2023-04-18T23:35:45.693Z,9.90
2023-04-18T23:38:15.034Z,9.88
2023-04-18T23:40:43.870Z,9.87
2023-04-18T23:43:12.347Z,9.85
2023-04-18T23:45:40.926Z,9.83
2023-04-18T23:48:09.524Z,9.81
2023-04-18T23:50:38.358Z,9.79
2023-04-18T23:53:07.433Z,9.77
2023-04-18T23:55:35.836Z,9.74
2023-04-18T23:58:05.316Z,9.73
